Time;durP1;ratioP1;P1;durP2;ratioP2;P2;SDS_P1;SDS_P2;PMS_P1;PMS_P2;Temp;Humidity;BMP_temperature;BMP_pressure;BME280_temperature;BME280_humidity;BME280_pressure;Samples;Min_cycle;Max_cycle;Signal;HPM_P1;HPM_P2
2021/09/01 00:01:05;;;;;;;4.82;3.38;;;20.00;99.90;;;;;;5070651;28;20210;-76
2021/09/01 00:03:32;;;;;;;3.80;3.50;;;19.90;99.90;;;;;;5070511;28;20209;-78
2021/09/01 00:05:59;;;;;;;3.20;2.90;;;19.90;99.90;;;;;;5070151;28;20625;-79
2021/09/01 00:08:26;;;;;;;4.45;2.88;;;19.80;99.90;;;;;;5070739;28;20263;-79
2021/09/01 00:10:53;;;;;;;5.85;3.58;;;19.80;99.90;;;;;;5070643;28;20263;-77
2021/09/01 00:13:20;;;;;;;4.68;2.72;;;19.60;99.90;;;;;;5070786;28;20238;-79
2021/09/01 00:15:48;;;;;;;3.40;3.13;;;19.60;99.90;;;;;;5057399;28;20275;-76
2021/09/01 00:18:16;;;;;;;3.42;3.13;;;19.50;99.90;;;;;;5071122;28;20206;-76
2021/09/01 00:20:42;;;;;;;3.45;2.80;;;19.50;99.90;;;;;;5070326;28;20202;-79
2021/09/01 00:23:14;;;;;;;3.53;3.17;;;19.30;99.90;;;;;;5070528;28;20210;-77
2021/09/01 00:25:42;;;;;;;4.07;3.15;;;19.30;99.90;;;;;;5070353;28;20565;-79
2021/09/01 00:28:09;;;;;;;3.38;3.08;;;19.20;99.90;;;;;;5070354;28;20644;-77
2021/09/01 00:30:36;;;;;;;3.85;3.50;;;19.20;99.90;;;;;;5070489;28;20292;-75
2021/09/01 00:33:04;;;;;;;3.50;3.20;;;19.20;99.90;;;;;;5069885;28;20206;-76
2021/09/01 00:35:31;;;;;;;3.53;3.22;;;19.20;99.90;;;;;;5070174;28;20210;-76
2021/09/01 00:37:58;;;;;;;3.40;3.10;;;19.30;99.90;;;;;;5070132;28;20202;-76
2021/09/01 00:40:28;;;;;;;3.25;2.95;;;19.20;99.90;;;;;;5070732;28;20206;-76
2021/09/01 00:42:55;;;;;;;4.32;2.97;;;19.20;99.90;;;;;;5069849;28;20209;-76
2021/09/01 00:45:22;;;;;;;6.53;3.63;;;19.20;99.90;;;;;;5070210;28;20259;-75
2021/09/01 00:47:49;;;;;;;3.70;3.22;;;19.10;99.90;;;;;;5070235;28;20263;-75
2021/09/01 00:50:18;;;;;;;3.13;2.83;;;19.10;99.90;;;;;;5056698;28;20549;-78
2021/09/01 00:52:45;;;;;;;3.33;3.03;;;19.00;99.90;;;;;;5070968;28;20267;-78
2021/09/01 00:55:13;;;;;;;4.13;2.90;;;18.90;99.90;;;;;;5069744;28;20238;-76
2021/09/01 00:57:42;;;;;;;4.30;3.72;;;18.80;99.90;;;;;;5070495;28;20202;-78
2021/09/01 01:00:17;;;;;;;4.50;3.47;;;18.70;99.90;;;;;;5069572;28;20210;-78
2021/09/01 01:02:44;;;;;;;3.25;2.95;;;18.60;99.90;;;;;;5074437;28;20201;-77
2021/09/01 01:05:11;;;;;;;3.90;3.60;;;18.60;99.90;;;;;;5073307;28;20206;-78
2021/09/01 01:07:40;;;;;;;3.38;2.70;;;18.60;99.90;;;;;;5074430;28;20210;-78
2021/09/01 01:10:08;;;;;;;3.25;2.95;;;18.70;99.90;;;;;;5073738;28;20210;-78
2021/09/01 01:12:36;;;;;;;4.90;3.38;;;18.80;99.90;;;;;;5074016;28;20202;-78
2021/09/01 01:15:03;;;;;;;5.25;3.45;;;18.80;99.90;;;;;;5073454;28;20229;-78
2021/09/01 01:17:30;;;;;;;2.72;2.50;;;18.80;99.90;;;;;;5074317;28;20271;-77
2021/09/01 01:19:57;;;;;;;3.35;3.03;;;18.90;99.90;;;;;;5073549;28;20259;-78
2021/09/01 01:22:26;;;;;;;2.72;2.53;;;18.90;99.90;;;;;;5073661;28;20198;-78
2021/09/01 01:24:55;;;;;;;4.30;2.80;;;18.90;99.90;;;;;;5073711;28;20210;-78
2021/09/01 01:27:34;;;;;;;3.80;2.95;;;18.90;99.90;;;;;;5073681;28;20248;-77
2021/09/01 01:30:09;;;;;;;3.33;3.03;;;18.90;99.90;;;;;;5073490;28;20206;-76
2021/09/01 01:32:36;;;;;;;3.65;3.35;;;18.90;99.90;;;;;;5073090;28;20205;-75
2021/09/01 01:35:04;;;;;;;3.63;3.33;;;18.80;99.90;;;;;;5073109;28;20238;-75
2021/09/01 01:37:31;;;;;;;2.70;2.30;;;18.70;99.90;;;;;;5073567;28;20260;-75
2021/09/01 01:39:58;;;;;;;3.78;2.95;;;18.70;99.90;;;;;;5072729;28;20628;-74
2021/09/01 01:42:25;;;;;;;3.58;3.28;;;18.70;99.90;;;;;;5073499;28;20752;-75
2021/09/01 01:44:53;;;;;;;3.75;2.92;;;18.70;99.90;;;;;;5072752;28;20256;-76
2021/09/01 01:47:20;;;;;;;3.42;3.13;;;18.70;99.90;;;;;;5073314;28;20202;-75
2021/09/01 01:49:47;;;;;;;2.60;2.40;;;18.60;99.90;;;;;;5073521;28;20736;-78
2021/09/01 01:52:14;;;;;;;4.85;3.25;;;18.50;99.90;;;;;;5073362;28;20202;-79
2021/09/01 01:54:41;;;;;;;4.97;2.97;;;18.50;99.90;;;;;;5072930;28;20242;-79
2021/09/01 01:57:08;;;;;;;4.72;3.47;;;18.40;99.90;;;;;;5072654;28;20211;-79
2021/09/01 01:59:35;;;;;;;4.78;3.45;;;18.30;99.90;;;;;;5073126;28;20210;-78
2021/09/01 02:02:04;;;;;;;3.30;2.67;;;18.20;99.90;;;;;;5072252;28;20206;-77
2021/09/01 02:04:31;;;;;;;3.13;2.83;;;18.20;99.90;;;;;;5073200;28;20210;-77
2021/09/01 02:06:58;;;;;;;3.55;3.25;;;18.10;99.90;;;;;;5072316;28;20608;-77
2021/09/01 02:09:25;;;;;;;4.57;3.58;;;18.10;99.90;;;;;;5072963;28;20606;-77
2021/09/01 02:11:52;;;;;;;3.15;2.80;;;18.10;99.90;;;;;;5070370;28;20669;-76
2021/09/01 02:14:18;;;;;;;3.40;2.47;;;18.00;99.90;;;;;;5093393;28;20583;-76
2021/09/01 02:16:45;;;;;;;4.28;2.72;;;18.00;99.90;;;;;;5092906;28;20741;-76
2021/09/01 02:19:14;;;;;;;3.42;3.13;;;18.00;99.90;;;;;;5092689;28;20206;-76
2021/09/01 02:21:41;;;;;;;3.78;3.40;;;17.90;99.90;;;;;;5092961;28;20238;-77
2021/09/01 02:24:08;;;;;;;7.10;3.45;;;17.90;99.90;;;;;;5092871;28;20209;-76
2021/09/01 02:26:35;;;;;;;4.15;3.30;;;17.80;99.90;;;;;;5092658;28;20205;-77
2021/09/01 02:29:02;;;;;;;3.83;2.75;;;17.80;99.90;;;;;;5092348;28;20673;-77
2021/09/01 02:31:29;;;;;;;4.25;3.35;;;17.80;99.90;;;;;;5092403;28;20258;-77
2021/09/01 02:33:56;;;;;;;3.35;2.92;;;17.70;99.90;;;;;;5092155;28;20787;-77
2021/09/01 02:36:25;;;;;;;4.07;2.88;;;17.70;99.90;;;;;;5092826;28;20262;-76
2021/09/01 02:38:52;;;;;;;3.72;3.13;;;17.60;99.90;;;;;;5064163;28;20227;-77
2021/09/01 02:41:19;;;;;;;4.72;3.15;;;17.50;99.90;;;;;;5092981;28;20660;-77
2021/09/01 02:43:46;;;;;;;8.10;3.25;;;17.60;99.90;;;;;;5092738;28;20339;-79
2021/09/01 02:46:13;;;;;;;4.03;3.50;;;17.60;99.90;;;;;;5092066;28;20259;-79
2021/09/01 02:48:40;;;;;;;4.18;3.58;;;17.50;99.90;;;;;;5092418;28;20251;-81
2021/09/01 02:51:07;;;;;;;6.30;2.83;;;17.50;99.90;;;;;;5092165;28;20300;-79
2021/09/01 02:53:35;;;;;;;5.70;3.97;;;17.50;99.90;;;;;;5092497;28;20206;-81
2021/09/01 02:56:02;;;;;;;4.38;3.00;;;17.50;99.90;;;;;;5092006;28;20231;-78
2021/09/01 02:58:29;;;;;;;6.35;3.40;;;17.50;99.90;;;;;;5092165;28;20209;-80
2021/09/01 03:00:57;;;;;;;5.20;3.42;;;17.30;99.90;;;;;;5081198;28;20197;-74
2021/09/01 03:03:24;;;;;;;2.97;2.75;;;17.40;99.90;;;;;;5083362;28;20205;-75
2021/09/01 03:05:51;;;;;;;3.78;2.65;;;17.20;99.90;;;;;;5087627;28;20614;-74
2021/09/01 03:08:18;;;;;;;3.50;3.20;;;17.30;99.90;;;;;;5092734;28;20278;-74
2021/09/01 03:10:46;;;;;;;4.10;3.30;;;17.30;99.90;;;;;;5092255;28;20205;-81
2021/09/01 03:13:13;;;;;;;6.30;2.75;;;17.30;99.90;;;;;;5091815;28;20206;-83
2021/09/01 03:15:40;;;;;;;3.85;3.47;;;17.20;99.90;;;;;;5091341;28;20286;-79
2021/09/01 03:18:07;;;;;;;3.42;3.00;;;17.20;99.90;;;;;;5090324;28;20280;-80
2021/09/01 03:20:35;;;;;;;4.45;3.03;;;17.20;99.90;;;;;;5091595;28;20214;-77
2021/09/01 03:23:02;;;;;;;4.15;3.10;;;17.20;99.90;;;;;;5090532;28;20632;-78
2021/09/01 03:25:29;;;;;;;3.85;3.20;;;17.10;99.90;;;;;;5091254;28;20230;-78
2021/09/01 03:27:59;;;;;;;3.95;3.25;;;17.10;99.90;;;;;;5091233;28;20210;-78
2021/09/01 03:30:26;;;;;;;3.20;2.90;;;17.00;99.90;;;;;;5082423;28;20256;-76
2021/09/01 03:32:53;;;;;;;3.92;2.95;;;17.20;99.90;;;;;;5086472;28;20210;-78
2021/09/01 03:35:20;;;;;;;4.68;3.25;;;17.10;99.90;;;;;;5091650;28;20229;-77
2021/09/01 03:37:47;;;;;;;4.10;3.50;;;17.10;99.90;;;;;;5091866;28;20258;-77
2021/09/01 03:40:15;;;;;;;4.55;3.28;;;17.00;99.90;;;;;;5091380;28;20201;-77
2021/09/01 03:42:43;;;;;;;3.22;2.88;;;17.00;99.90;;;;;;5091352;28;20258;-77
2021/09/01 03:45:12;;;;;;;2.80;2.60;;;17.00;99.90;;;;;;5090475;28;20213;-77
2021/09/01 03:47:39;;;;;;;3.55;3.08;;;17.00;99.90;;;;;;5091640;28;20270;-76
2021/09/01 03:50:08;;;;;;;3.50;3.20;;;16.90;99.90;;;;;;5090797;28;20613;-75
2021/09/01 03:52:35;;;;;;;3.45;3.05;;;16.90;99.90;;;;;;5091510;28;20205;-76
2021/09/01 03:55:03;;;;;;;4.28;3.17;;;16.70;99.90;;;;;;5090782;28;20289;-75
2021/09/01 03:57:30;;;;;;;4.45;3.28;;;16.80;99.90;;;;;;5090724;28;20210;-76
2021/09/01 03:59:56;;;;;;;3.85;3.45;;;16.80;99.90;;;;;;5090672;28;20734;-76
2021/09/01 04:02:25;;;;;;;4.38;3.60;;;16.80;99.90;;;;;;5063397;28;20201;-76
2021/09/01 04:04:52;;;;;;;2.95;2.65;;;16.90;99.90;;;;;;5090645;28;20333;-76
2021/09/01 04:07:19;;;;;;;3.05;2.53;;;16.80;99.90;;;;;;5090939;28;20201;-75
2021/09/01 04:09:46;;;;;;;4.55;2.72;;;17.00;99.90;;;;;;5091111;28;20209;-75
2021/09/01 04:12:13;;;;;;;3.25;2.95;;;16.90;99.90;;;;;;5090152;28;20626;-75
2021/09/01 04:14:40;;;;;;;2.83;2.58;;;16.80;99.90;;;;;;5091165;28;20229;-76
2021/09/01 04:17:07;;;;;;;3.35;3.05;;;16.80;99.90;;;;;;5090562;28;20270;-75
2021/09/01 04:19:36;;;;;;;4.38;2.45;;;16.80;99.90;;;;;;5090558;28;20254;-76
2021/09/01 04:22:03;;;;;;;4.82;2.85;;;16.80;99.90;;;;;;5090678;28;20217;-76
2021/09/01 04:24:31;;;;;;;5.65;2.75;;;16.70;99.90;;;;;;5090646;28;20213;-76
2021/09/01 04:26:58;;;;;;;3.72;2.35;;;16.70;99.90;;;;;;5090177;28;20238;-75
2021/09/01 04:29:25;;;;;;;4.72;3.03;;;16.70;99.90;;;;;;5090421;28;20205;-76
2021/09/01 04:31:52;;;;;;;4.25;3.08;;;16.80;99.90;;;;;;5090239;28;20209;-77
2021/09/01 04:34:19;;;;;;;2.92;2.72;;;16.80;99.90;;;;;;5090538;28;20206;-79
2021/09/01 04:36:47;;;;;;;4.80;3.65;;;16.70;99.90;;;;;;5090910;28;20205;-80
2021/09/01 04:39:14;;;;;;;3.38;3.05;;;16.70;99.90;;;;;;5090530;28;20212;-78
2021/09/01 04:41:41;;;;;;;5.40;3.15;;;16.70;99.90;;;;;;5090090;28;20206;-77
2021/09/01 04:44:08;;;;;;;4.35;3.72;;;16.70;99.90;;;;;;5090155;28;20813;-78
2021/09/01 04:46:35;;;;;;;3.20;2.83;;;16.70;99.90;;;;;;5090292;28;20672;-78
2021/09/01 04:49:02;;;;;;;3.55;2.85;;;16.70;99.90;;;;;;5090108;28;20756;-80
2021/09/01 04:51:29;;;;;;;3.33;2.80;;;16.70;99.90;;;;;;5090177;28;20750;-79
2021/09/01 04:53:57;;;;;;;3.95;3.17;;;16.70;99.90;;;;;;5090150;28;20706;-77
2021/09/01 04:56:24;;;;;;;3.78;3.25;;;16.60;99.90;;;;;;5090403;28;20229;-79
2021/09/01 04:58:51;;;;;;;4.55;3.78;;;16.60;99.90;;;;;;5089814;28;20209;-76
2021/09/01 05:01:18;;;;;;;5.57;3.30;;;16.60;99.90;;;;;;5090537;28;20209;-77
2021/09/01 05:03:45;;;;;;;3.78;3.10;;;16.60;99.90;;;;;;5090632;28;20251;-79
2021/09/01 05:06:12;;;;;;;3.65;3.20;;;16.50;99.90;;;;;;5090027;28;20209;-78
2021/09/01 05:08:39;;;;;;;3.92;3.53;;;16.50;99.90;;;;;;5090661;28;20628;-82
2021/09/01 05:11:07;;;;;;;6.25;3.92;;;16.40;99.90;;;;;;5090874;28;20614;-84
2021/09/01 05:13:36;;;;;;;4.10;3.17;;;16.40;99.90;;;;;;5091075;28;20210;-82
2021/09/01 05:16:04;;;;;;;4.40;3.33;;;16.40;99.90;;;;;;5090493;28;20233;-89
2021/09/01 05:18:31;;;;;;;3.85;3.47;;;16.40;99.90;;;;;;5091163;28;20259;-88
2021/09/01 05:21:00;;;;;;;5.40;4.20;;;16.30;99.90;;;;;;5090665;28;20267;-83
2021/09/01 05:23:31;;;;;;;5.65;3.60;;;16.30;99.90;;;;;;5091234;28;20266;-85
2021/09/01 05:26:01;;;;;;;4.25;3.85;;;16.40;99.90;;;;;;5090780;28;20297;-84
2021/09/01 05:28:31;;;;;;;4.22;2.85;;;16.50;99.90;;;;;;5091207;28;20286;-91
2021/09/01 05:31:00;;;;;;;3.55;3.25;;;16.40;99.90;;;;;;5090296;28;20204;-80
2021/09/01 05:33:29;;;;;;;5.15;2.80;;;16.40;99.90;;;;;;5089972;28;20205;-82
2021/09/01 05:35:56;;;;;;;4.15;3.17;;;16.40;99.90;;;;;;5089724;28;20811;-79
2021/09/01 05:38:23;;;;;;;9.07;3.22;;;16.40;99.90;;;;;;5089747;28;20209;-76
2021/09/01 05:40:52;;;;;;;7.20;3.78;;;16.50;99.90;;;;;;5078300;28;20263;-75
2021/09/01 05:43:20;;;;;;;2.83;2.60;;;16.50;99.90;;;;;;5075816;28;20198;-80
2021/09/01 05:45:50;;;;;;;6.70;3.08;;;16.60;99.90;;;;;;5089626;28;20267;-78
2021/09/01 05:48:20;;;;;;;5.10;3.00;;;16.50;99.90;;;;;;5089349;28;20209;-81
2021/09/01 05:50:52;;;;;;;5.47;3.28;;;16.60;99.90;;;;;;5094072;28;20259;-81
2021/09/01 05:53:19;;;;;;;5.38;3.35;;;16.70;99.90;;;;;;5093454;28;20289;-82
2021/09/01 05:55:49;;;;;;;6.25;4.38;;;16.60;99.90;;;;;;5093835;28;20309;-79
2021/09/01 05:58:17;;;;;;;6.03;4.00;;;16.70;99.90;;;;;;5093314;28;20258;-81
2021/09/01 06:00:48;;;;;;;6.63;3.42;;;16.70;99.90;;;;;;5082863;28;20233;-78
2021/09/01 06:03:19;;;;;;;5.13;3.58;;;16.80;99.90;;;;;;5090242;28;20209;-78
2021/09/01 06:05:47;;;;;;;6.85;3.88;;;17.00;99.90;;;;;;5089742;28;20210;-85
2021/09/01 06:08:15;;;;;;;6.63;3.33;;;17.00;99.90;;;;;;5085527;28;20217;-83
2021/09/01 06:10:49;;;;;;;5.60;3.42;;;17.00;99.90;;;;;;5093602;28;20267;-85
2021/09/01 06:13:16;;;;;;;3.72;3.35;;;17.10;99.90;;;;;;5093820;28;20248;-82
2021/09/01 06:15:43;;;;;;;4.85;3.92;;;17.10;99.90;;;;;;5093157;28;20233;-83
2021/09/01 06:18:10;;;;;;;6.15;3.50;;;17.20;99.90;;;;;;5083492;28;20207;-80
2021/09/01 06:20:40;;;;;;;4.32;3.92;;;17.30;99.90;;;;;;5081747;28;20202;-77
2021/09/01 06:23:08;;;;;;;4.43;3.97;;;17.30;99.90;;;;;;5090359;28;20201;-76
2021/09/01 06:25:37;;;;;;;6.32;3.83;;;17.40;99.90;;;;;;5080724;28;20620;-76
2021/09/01 06:28:05;;;;;;;7.45;3.88;;;17.60;99.90;;;;;;5078504;28;20688;-76
2021/09/01 06:30:32;;;;;;;6.47;3.83;;;17.70;99.90;;;;;;5067806;28;20263;-76
2021/09/01 06:32:59;;;;;;;5.47;3.45;;;17.80;99.90;;;;;;5078830;28;20217;-76
2021/09/01 06:35:27;;;;;;;5.28;4.13;;;18.00;99.90;;;;;;5079196;28;20218;-75
2021/09/01 06:37:55;;;;;;;5.18;3.83;;;18.00;99.90;;;;;;5073614;28;20280;-76
2021/09/01 06:40:23;;;;;;;10.32;4.45;;;18.20;99.90;;;;;;5059968;28;20203;-76
2021/09/01 06:42:50;;;;;;;7.93;4.45;;;18.30;99.90;;;;;;5061303;28;20203;-76
2021/09/01 06:45:17;;;;;;;4.68;3.75;;;18.30;99.90;;;;;;5059571;28;20272;-76
2021/09/01 06:47:46;;;;;;;5.18;3.70;;;18.40;99.90;;;;;;5061755;28;20260;-83
2021/09/01 06:50:16;;;;;;;4.80;4.30;;;18.50;99.90;;;;;;5069619;28;20202;-77
2021/09/01 06:52:44;;;;;;;8.23;4.45;;;18.50;99.90;;;;;;5071977;28;20213;-78
2021/09/01 06:55:14;;;;;;;5.68;4.72;;;18.50;99.90;;;;;;5067377;28;20229;-79
2021/09/01 06:57:41;;;;;;;9.85;3.95;;;18.50;99.90;;;;;;5062403;28;20213;-78
2021/09/01 07:00:11;;;;;;;5.45;3.83;;;18.60;99.90;;;;;;5061749;28;20206;-75
2021/09/01 07:02:38;;;;;;;7.10;3.80;;;18.70;99.90;;;;;;5055406;28;20209;-75
2021/09/01 07:05:06;;;;;;;7.68;3.80;;;18.80;99.90;;;;;;5058296;28;20207;-75
2021/09/01 07:07:33;;;;;;;5.72;3.38;;;18.90;99.90;;;;;;5061158;28;20206;-75
2021/09/01 07:10:00;;;;;;;7.35;3.38;;;19.10;99.90;;;;;;5060862;28;20206;-73
2021/09/01 07:12:29;;;;;;;4.70;4.05;;;19.30;99.90;;;;;;5065654;28;20631;-75
2021/09/01 07:14:56;;;;;;;6.07;3.22;;;19.50;99.90;;;;;;5061888;28;20741;-77
2021/09/01 07:17:23;;;;;;;6.70;3.83;;;19.70;99.90;;;;;;5060293;28;20209;-75
2021/09/01 07:19:50;;;;;;;3.72;3.22;;;19.80;99.90;;;;;;5058956;28;20202;-73
2021/09/01 07:22:17;;;;;;;6.85;3.67;;;19.90;99.90;;;;;;5069681;28;20210;-76
2021/09/01 07:24:44;;;;;;;3.33;2.92;;;20.00;99.90;;;;;;5080762;28;20220;-75
2021/09/01 07:27:11;;;;;;;3.72;3.15;;;20.20;99.90;;;;;;5065169;28;20597;-76
2021/09/01 07:29:39;;;;;;;4.45;3.00;;;20.20;99.90;;;;;;5067236;28;21149;-74
2021/09/01 07:32:06;;;;;;;3.78;3.20;;;20.40;99.90;;;;;;5066327;28;20203;-75
2021/09/01 07:34:33;;;;;;;6.28;2.75;;;20.50;99.90;;;;;;5061652;28;20207;-76
2021/09/01 07:37:00;;;;;;;3.55;2.88;;;20.70;99.90;;;;;;5054792;28;20238;-74
2021/09/01 07:39:27;;;;;;;7.13;3.90;;;20.90;99.90;;;;;;5056977;28;20257;-74
2021/09/01 07:41:54;;;;;;;4.47;3.35;;;20.90;99.90;;;;;;5055706;28;20202;-73
2021/09/01 07:44:21;;;;;;;4.78;3.60;;;20.90;99.90;;;;;;5056588;28;20215;-74
2021/09/01 07:46:50;;;;;;;3.63;3.03;;;21.00;99.90;;;;;;5060271;28;20258;-73
2021/09/01 07:49:17;;;;;;;5.65;3.25;;;21.20;99.90;;;;;;5058224;28;20674;-74
2021/09/01 07:51:44;;;;;;;10.48;3.05;;;21.20;99.90;;;;;;5081470;28;20210;-73
2021/09/01 07:54:10;;;;;;;3.88;3.40;;;21.20;99.90;;;;;;5084151;28;20213;-71
2021/09/01 07:56:37;;;;;;;3.90;2.85;;;21.50;99.90;;;;;;5069126;28;20295;-77
2021/09/01 07:59:04;;;;;;;8.30;3.92;;;21.50;99.90;;;;;;5061180;28;20202;-76
2021/09/01 08:01:31;;;;;;;5.78;3.72;;;21.70;99.90;;;;;;5064834;28;20670;-73
2021/09/01 08:04:00;;;;;;;8.02;3.47;;;21.90;99.90;;;;;;5061775;28;20260;-72
2021/09/01 08:06:27;;;;;;;8.48;3.35;;;22.00;99.90;;;;;;5070808;28;20203;-73
2021/09/01 08:08:54;;;;;;;3.97;3.55;;;22.20;99.90;;;;;;5075462;28;20205;-72
2021/09/01 08:11:21;;;;;;;5.75;2.70;;;22.50;99.90;;;;;;5069205;28;20231;-72
2021/09/01 08:13:48;;;;;;;3.95;3.38;;;22.50;99.90;;;;;;5072845;28;20261;-72
2021/09/01 08:16:15;;;;;;;4.13;3.72;;;22.60;99.90;;;;;;5072805;28;20230;-72
2021/09/01 08:18:42;;;;;;;5.30;2.97;;;22.80;99.90;;;;;;5073746;28;20203;-72
2021/09/01 08:21:11;;;;;;;4.00;3.10;;;22.70;99.90;;;;;;5089535;28;20733;-73
2021/09/01 08:23:38;;;;;;;3.15;2.85;;;22.70;99.90;;;;;;5072864;28;20857;-72
2021/09/01 08:26:05;;;;;;;5.68;3.40;;;22.40;99.90;;;;;;5077323;28;20255;-73
2021/09/01 08:28:32;;;;;;;6.05;3.63;;;22.40;99.90;;;;;;5082183;28;20282;-72
2021/09/01 08:30:59;;;;;;;6.95;3.40;;;22.50;99.90;;;;;;5076485;28;20212;-73
2021/09/01 08:33:26;;;;;;;3.50;2.63;;;22.70;99.90;;;;;;5082259;28;20209;-72
2021/09/01 08:35:53;;;;;;;6.00;3.25;;;22.80;99.90;;;;;;5076800;28;20234;-73
2021/09/01 08:38:21;;;;;;;5.00;3.45;;;23.00;99.90;;;;;;5080683;28;20202;-74
2021/09/01 08:40:48;;;;;;;4.28;2.25;;;23.20;99.90;;;;;;5078461;28;20255;-74
2021/09/01 08:43:18;;;;;;;2.92;2.67;;;23.70;99.90;;;;;;5078994;28;20291;-74
2021/09/01 08:45:46;;;;;;;4.10;3.25;;;24.40;99.90;;;;;;5090560;28;20289;-73
2021/09/01 08:48:15;;;;;;;3.30;3.00;;;24.00;99.90;;;;;;5088826;28;20292;-74
2021/09/01 08:50:42;;;;;;;7.28;2.67;;;23.90;99.90;;;;;;5070151;28;20323;-74
2021/09/01 08:53:10;;;;;;;4.10;3.38;;;23.90;99.90;;;;;;5073119;28;20251;-73
2021/09/01 08:55:39;;;;;;;2.90;2.67;;;24.20;99.90;;;;;;5075657;28;20210;-74
2021/09/01 08:58:06;;;;;;;5.93;3.65;;;24.40;99.90;;;;;;5073061;28;20209;-75
2021/09/01 09:00:33;;;;;;;4.57;2.55;;;24.20;99.90;;;;;;5076838;28;20688;-74
2021/09/01 09:03:01;;;;;;;3.22;2.92;;;24.50;99.90;;;;;;5073225;28;20257;-73
2021/09/01 09:05:35;;;;;;;4.03;3.00;;;24.70;99.90;;;;;;5075685;28;20205;-72
2021/09/01 09:08:04;;;;;;;4.50;3.05;;;24.80;99.90;;;;;;5063439;28;20201;-71
2021/09/01 09:10:33;;;;;;;9.60;3.15;;;26.00;99.90;;;;;;5075669;28;20228;-73
2021/09/01 09:13:03;;;;;;;2.85;2.20;;;26.20;99.90;;;;;;5072774;28;20255;-73
2021/09/01 09:15:31;;;;;;;3.78;2.50;;;25.50;99.90;;;;;;5074852;28;20206;-73
2021/09/01 09:17:58;;;;;;;3.55;2.30;;;25.90;99.90;;;;;;5071666;28;20652;-73
2021/09/01 09:20:27;;;;;;;7.65;2.97;;;27.00;99.90;;;;;;5061234;28;20210;-73
2021/09/01 09:22:55;;;;;;;3.42;3.08;;;27.30;99.90;;;;;;5059908;28;20208;-75
2021/09/01 09:25:25;;;;;;;5.63;2.67;;;28.90;99.90;;;;;;5065332;28;20739;-75
2021/09/01 09:27:54;;;;;;;3.30;3.03;;;28.50;99.90;;;;;;5077000;28;20256;-73
2021/09/01 09:30:34;;;;;;;5.15;2.53;;;29.00;99.90;;;;;;5070093;28;20203;-73
2021/09/01 09:33:03;;;;;;;2.53;2.33;;;29.10;99.90;;;;;;5073021;28;20686;-74
2021/09/01 09:35:46;;;;;;;4.40;3.15;;;31.20;99.90;;;;;;5075871;28;20251;-74
2021/09/01 09:38:14;;;;;;;4.40;2.50;;;30.60;99.90;;;;;;5077333;28;20213;-74
2021/09/01 09:40:41;;;;;;;3.92;2.90;;;29.30;99.90;;;;;;5075403;28;20211;-75
2021/09/01 09:43:16;;;;;;;7.82;3.00;;;30.00;99.90;;;;;;5076188;28;20209;-74
2021/09/01 09:45:46;;;;;;;3.00;2.60;;;31.00;99.90;;;;;;5075476;28;20201;-74
2021/09/01 09:48:13;;;;;;;7.88;2.95;;;32.80;99.50;;;;;;5071408;28;20258;-74
2021/09/01 09:50:48;;;;;;;4.57;3.20;;;34.10;99.20;;;;;;5075229;28;20680;-75
2021/09/01 09:53:33;;;;;;;3.22;2.92;;;32.00;98.50;;;;;;5065532;28;20198;-75
2021/09/01 09:56:09;;;;;;;3.58;3.17;;;31.70;98.60;;;;;;5087526;28;20732;-74
2021/09/01 09:58:38;;;;;;;2.58;2.38;;;31.00;99.00;;;;;;5074881;28;20224;-74
2021/09/01 10:01:08;;;;;;;5.40;2.97;;;30.70;99.10;;;;;;5068431;28;20202;-74
2021/09/01 10:03:35;;;;;;;3.20;2.80;;;30.00;99.50;;;;;;5078076;28;20205;-75
2021/09/01 10:06:04;;;;;;;3.72;3.42;;;30.40;99.20;;;;;;5066406;28;20205;-74
2021/09/01 10:08:32;;;;;;;2.63;2.42;;;29.60;99.30;;;;;;5072659;28;20217;-75
2021/09/01 10:11:01;;;;;;;3.88;2.50;;;30.60;99.40;;;;;;5066939;28;20252;-76
2021/09/01 10:13:29;;;;;;;2.97;2.78;;;31.00;99.00;;;;;;5069694;28;20245;-74
2021/09/01 10:16:01;;;;;;;3.78;3.45;;;31.70;98.70;;;;;;5072475;28;20201;-79
2021/09/01 10:18:31;;;;;;;6.35;2.53;;;31.20;98.50;;;;;;5072646;28;20270;-81
2021/09/01 10:20:59;;;;;;;2.50;2.30;;;31.70;99.00;;;;;;5089179;28;20200;-79
2021/09/01 10:23:43;;;;;;;2.92;2.70;;;31.70;98.50;;;;;;5077631;28;20206;-77
2021/09/01 10:26:29;;;;;;;3.13;2.60;;;30.20;98.50;;;;;;5069119;28;20206;-78
2021/09/01 10:28:56;;;;;;;3.80;2.95;;;29.50;99.40;;;;;;5082585;28;20206;-78
2021/09/01 10:31:29;;;;;;;2.70;2.35;;;29.90;99.30;;;;;;5089371;28;20266;-77
2021/09/01 10:34:02;;;;;;;3.03;2.80;;;28.60;99.90;;;;;;5090241;28;20206;-75
2021/09/01 10:36:54;;;;;;;3.70;2.83;;;27.90;99.90;;;;;;5085098;28;20316;-76
2021/09/01 10:39:38;;;;;;;2.90;2.65;;;28.00;99.90;;;;;;5057920;28;20748;-79
2021/09/01 10:42:40;;;;;;;4.22;2.58;;;28.20;99.90;;;;;;5072689;28;20669;-79
2021/09/01 10:45:13;;;;;;;3.53;3.22;;;28.20;99.90;;;;;;5075866;28;20210;-76
2021/09/01 10:48:03;;;;;;;3.28;2.50;;;28.30;99.90;;;;;;5077965;28;20750;-78
2021/09/01 10:50:34;;;;;;;2.90;2.60;;;28.00;99.90;;;;;;5079021;28;20202;-79
2021/09/01 10:53:04;;;;;;;2.30;2.10;;;28.00;99.90;;;;;;5077209;28;20202;-75
2021/09/01 10:55:32;;;;;;;3.15;2.95;;;28.30;99.90;;;;;;5082510;28;20651;-75
2021/09/01 10:58:21;;;;;;;3.22;2.70;;;28.20;99.90;;;;;;5077007;28;20304;-74
2021/09/01 11:00:56;;;;;;;3.60;2.67;;;28.20;99.90;;;;;;5058730;28;20217;-75
2021/09/01 11:03:31;;;;;;;2.90;2.60;;;28.60;99.90;;;;;;5073368;28;20210;-73
2021/09/01 11:06:15;;;;;;;2.75;2.53;;;28.10;99.90;;;;;;5074923;28;20680;-78
2021/09/01 11:09:03;;;;;;;2.75;2.50;;;28.10;99.90;;;;;;5059697;28;20724;-77
2021/09/01 11:11:41;;;;;;;3.10;2.83;;;28.10;99.90;;;;;;5064790;28;20289;-78
2021/09/01 11:14:08;;;;;;;2.58;2.38;;;28.40;99.90;;;;;;5072472;28;20202;-80
2021/09/01 11:16:35;;;;;;;3.17;2.60;;;28.40;99.90;;;;;;5072711;28;20646;-77
2021/09/01 11:19:05;;;;;;;2.47;2.28;;;27.80;99.90;;;;;;5067479;28;20210;-73
2021/09/01 11:21:34;;;;;;;2.63;2.40;;;28.20;99.90;;;;;;5061319;28;20681;-71
2021/09/01 11:24:02;;;;;;;4.15;2.30;;;28.40;99.90;;;;;;5065829;28;20606;-78
2021/09/01 11:26:30;;;;;;;3.42;3.13;;;28.40;99.90;;;;;;5066505;28;20279;-74
2021/09/01 11:28:58;;;;;;;4.00;2.65;;;28.40;99.90;;;;;;5074764;28;20665;-74
2021/09/01 11:31:25;;;;;;;3.97;2.70;;;28.70;99.90;;;;;;5083046;28;20201;-76
2021/09/01 11:33:57;;;;;;;4.10;3.15;;;28.70;99.90;;;;;;5071088;28;20207;-76
2021/09/01 11:36:25;;;;;;;2.70;2.50;;;28.80;99.90;;;;;;5075612;28;20264;-78
2021/09/01 11:38:55;;;;;;;5.38;2.88;;;28.70;99.90;;;;;;5080793;28;20258;-77
2021/09/01 11:41:24;;;;;;;3.67;2.85;;;28.30;99.90;;;;;;5080675;28;20198;-78
2021/09/01 11:43:59;;;;;;;2.33;2.13;;;28.50;99.90;;;;;;5083241;28;20209;-76
2021/09/01 11:46:28;;;;;;;3.45;3.00;;;28.40;99.90;;;;;;5080205;28;20255;-80
2021/09/01 11:49:02;;;;;;;3.47;2.90;;;28.80;99.90;;;;;;5079397;28;20666;-76
2021/09/01 11:51:29;;;;;;;3.10;2.90;;;29.00;99.90;;;;;;5066588;28;20207;-75
2021/09/01 11:53:58;;;;;;;4.60;3.08;;;29.00;99.90;;;;;;5078018;28;20206;-74
2021/09/01 11:56:26;;;;;;;3.13;2.38;;;29.20;99.90;;;;;;5071328;28;20264;-77
2021/09/01 11:58:58;;;;;;;3.72;2.65;;;29.50;99.90;;;;;;5077337;28;20209;-86
2021/09/01 12:01:26;;;;;;;4.85;2.97;;;29.60;99.90;;;;;;5071762;28;20202;-77
2021/09/01 12:03:53;;;;;;;4.05;2.70;;;29.30;99.80;;;;;;5069971;28;20250;-76
2021/09/01 12:06:20;;;;;;;3.67;2.75;;;29.50;99.70;;;;;;5074379;28;20210;-77
2021/09/01 12:08:49;;;;;;;2.65;2.42;;;29.30;99.90;;;;;;5076573;28;20203;-77
2021/09/01 12:11:18;;;;;;;4.47;2.67;;;28.80;99.90;;;;;;5075368;28;20251;-79
2021/09/01 12:13:47;;;;;;;2.83;2.60;;;28.50;99.90;;;;;;5064200;28;20206;-79
2021/09/01 12:16:15;;;;;;;3.00;2.70;;;28.40;99.90;;;;;;5064213;28;20210;-77
2021/09/01 12:18:52;;;;;;;4.97;3.28;;;28.80;99.90;;;;;;5067557;28;20234;-79
2021/09/01 12:21:21;;;;;;;2.95;2.45;;;29.10;99.90;;;;;;5086867;28;20259;-79
2021/09/01 12:24:11;;;;;;;3.30;2.65;;;29.30;99.90;;;;;;5078003;28;20206;-76
2021/09/01 12:27:06;;;;;;;3.20;2.92;;;29.40;99.90;;;;;;5064361;28;20215;-74
2021/09/01 12:29:37;;;;;;;4.00;3.15;;;28.90;99.90;;;;;;5061085;28;20214;-76
2021/09/01 12:32:06;;;;;;;3.17;2.85;;;28.70;99.90;;;;;;5083430;28;20220;-74
2021/09/01 12:34:36;;;;;;;2.92;2.65;;;28.90;99.90;;;;;;5084092;28;20202;-77
2021/09/01 12:37:06;;;;;;;3.28;2.78;;;29.00;99.90;;;;;;5069133;28;20222;-77
2021/09/01 12:39:49;;;;;;;3.50;2.65;;;29.00;99.90;;;;;;5075688;28;20678;-75
2021/09/01 12:42:32;;;;;;;3.30;3.00;;;28.60;99.80;;;;;;5082164;28;20194;-76
2021/09/01 12:45:01;;;;;;;3.85;2.45;;;28.80;99.90;;;;;;5069205;28;20272;-75
2021/09/01 12:47:29;;;;;;;3.35;3.05;;;28.90;99.90;;;;;;5068304;28;20214;-76
2021/09/01 12:49:57;;;;;;;2.92;2.72;;;28.90;99.90;;;;;;5070948;28;20214;-75
2021/09/01 12:52:25;;;;;;;3.45;2.83;;;28.70;99.90;;;;;;5065672;28;20670;-80
2021/09/01 12:54:54;;;;;;;3.75;3.42;;;28.80;99.90;;;;;;5058256;28;20207;-81
2021/09/01 12:57:23;;;;;;;2.80;2.28;;;29.10;99.90;;;;;;5083417;28;20323;-75